METAR Data
IDs: Format: Raw Decoded Include TAF

Data at: 0622 UTC 11 Dec 2018

PAGA 110556Z AUTO 00000KT 10SM CLR M18/M20 A2890 RMK AO2 SLP793 T11831200 11133 21183 56010 FZRANO
PAGA 110456Z AUTO 00000KT 10SM CLR M17/M19 A2891 RMK AO2 SLP795 T11721194 FZRANO
PAGA 110356Z AUTO VRB03KT 10SM CLR M17/M18 A2892 RMK AO2 SLP798 T11671183 FZRANO
PAGA 110256Z AUTO 35005KT 10SM FEW120 M16/M18 A2893 RMK AO2 SLP802 T11611178 56008 FZRANO
PAGA 110156Z AUTO 34004KT 10SM FEW120 M15/M17 A2894 RMK AO2 SLP804 T11501167 FZRANO
PAGA 110056Z AUTO 35005KT 10SM SCT120 M14/M16 A2895 RMK AO2 SLP806 T11441161 FZRANO
PAGA 102356Z AUTO 35006KT 10SM FEW047 SCT120 M13/M15 A2896 RMK AO2 SLP810 60000 T11331150 11122 21139 58010 FZRANO
PAGA 102256Z AUTO 36006KT 10SM OVC055 M13/M14 A2898 RMK AO2 SLP816 T11281144 FZRANO
PAGA 102156Z AUTO 36005KT 10SM OVC060 M13/M14 A2898 RMK AO2 SLP818 T11281144 FZRANO
PAGA 102056Z AUTO 36005KT 9SM SCT050 OVC060 M13/M15 A2899 RMK AO2 SNE56 SLP820 P0000 60000 T11331150 58006 FZRANO
PAGA 101956Z AUTO 35005KT 9SM -SN SCT041 OVC050 M13/M15 A2900 RMK AO2 SLP823 P0000 T11331150 FZRANO
PAGA 101856Z AUTO 35005KT 9SM -SN OVC033 M13/M16 A2900 RMK AO2 SLP824 P0000 T11331156 FZRANO
PAGA 101756Z AUTO 01003KT 3SM -SN BR FEW030 OVC039 M14/M16 A2900 RMK AO2 SNE1659B15 SLP826 P0000 60000 T11391156 11111 21139 57007 FZRANO
PAGA 101656Z AUTO 36005KT 9SM -SN FEW040 OVC050 M13/M16 A2901 RMK AO2 SNB49 SLP828 P0000 T11331156 FZRANO
PAGA 101556Z AUTO 35005KT 10SM FEW055 OVC085 M12/M14 A2902 RMK AO2 SLP831 T11171139 FZRANO
PAGA 101456Z AUTO 07007KT 10SM BKN080 M11/M13 A2903 RMK AO2 SLP833 60000 T11111133 56015 FZRANO
PAGA 101356Z AUTO 11015KT 10SM CLR M11/M13 A2904 RMK AO2 SLP838 T11111133 FZRANO
PAGA 101256Z AUTO 09008KT 10SM CLR M12/M14 A2906 RMK AO2 SNE04 SLP843 P0000 T11171139 FZRANO
PAGA 101156Z AUTO 09005KT 10SM -SN SCT048 M13/M14 A2907 RMK AO2 SNE02B55 SLP848 P0000 60000 T11281144 11106 21128 58009 FZRANO
PAGA 101056Z AUTO 09009KT 9SM -SN BKN046 M12/M14 A2908 RMK AO2 SNB46 SLP852 P0000 T11221139 FZRANO
PAGA 100956Z AUTO 09010KT 10SM OVC044 M12/M13 A2909 RMK AO2 SLP855 T11171133 FZRANO
PAGA 100856Z AUTO 10009KT 10SM OVC044 M11/M13 A2910 RMK AO2 SNB09E45 SLP857 P0000 60000 T11111133 410941139 53000 FZRANO
PAGA 100756Z AUTO 10007KT 10SM OVC040 M12/M14 A2909 RMK AO2 SNE03 SLP856 P0000 T11171139 FZRANO
PAGA 100656Z AUTO 10007KT 9SM -SN OVC044 M11/M13 A2910 RMK AO2 SNB0558 SLP857 P0000 T11111133 FZRANO
PAGA 100556Z AUTO 10008KT 10SM OVC048 M11/M13 A2910 RMK AO2 SNB23E38 SLP857 P0000 60000 T11061128 11094 21111 51005 FZRANO
PAGA 100456Z AUTO 14004KT 10SM OVC050 M11/M12 A2909 RMK AO2 SNE26 SLP856 P0000 T11061122 FZRANO
PAGA 100356Z AUTO 10010KT 9SM -SN FEW029 OVC050 M10/M12 A2909 RMK AO2 SLP854 P0000 T11001122 FZRANO
PAGA 100256Z AUTO 10008KT 6SM -SN BR FEW031 SCT041 OVC055 M10/M12 A2908 RMK AO2 SLP851 P0000 60000 T11001117 55000 FZRANO
PAGA 100156Z AUTO 12008KT 9SM -SN FEW010 BKN036 OVC055 M10/M12 A2908 RMK AO2 SLP851 P0000 T11001117 FZRANO
PAGA 100107Z AUTO 11009KT 9SM OVC060 M09/M12 A2908 RMK AO2 SNE06 P0000 FZRANO
PAGA 100059Z AUTO 11010KT 2 1/2SM -SN BR OVC060 M09/M12 A2908 RMK AO2 P0000 FZRANO
PAGA 100056Z AUTO 11010KT 1SM -SN BR FEW045 OVC060 M09/M12 A2908 RMK AO2 VIS 1/4V5 SLP851 P0000 T10941117 FZRANO
PAGA 100051Z AUTO 11010KT 1SM -SN BR FEW033 OVC065 M09/M12 A2908 RMK AO2 VIS 1/4V5 P0000 FZRANO
PAGA 100030Z AUTO 11010KT 3SM -SN BR SCT036 BKN046 OVC055 M09/M12 A2908 RMK AO2 P0000 FZRANO
PAGA 100018Z AUTO 11010KT 2SM -SN BR BKN040 OVC050 M09/M12 A2908 RMK AO2 P0000 FZRANO
PAGA 092356Z AUTO 11010KT 8SM -SN FEW042 OVC060 M09/M12 A2908 RMK AO2 SLP852 P0000 60000 T10941117 11094 21106 51001 FZRANO
PAGA 092256Z AUTO 10010KT 9SM -SN SCT050 OVC065 M09/M12 A2908 RMK AO2 SNB09 SLP852 P0000 T10941117 FZRANO
PAGA 092156Z AUTO 11010KT 10SM OVC075 M10/M12 A2908 RMK AO2 SNE43 SLP851 P0000 T11001117 FZRANO
PAGA 092056Z AUTO 11012KT 7SM -SN FEW032 BKN050 OVC075 M10/M12 A2908 RMK AO2 SNB30 SLP851 P0000 60000 T11001117 53003 FZRANO
PAGA 091956Z AUTO 12013KT 10SM SCT029 BKN060 OVC080 M10/M12 A2907 RMK AO2 SLP848 T11001122 FZRANO
PAGA 091914Z AUTO 12011KT 10SM FEW026 OVC085 M11/M12 A2907 RMK AO2 FZRANO
PAGA 091856Z AUTO 12010KT 10SM BKN026 OVC080 M11/M12 A2907 RMK AO2 SNE19 SLP848 P0000 T11061122 FZRANO